Latest Weather Observations for Yamba

IDN60801

Issued at 11:02 am EDT Thursday 23 February 2017 (issued every 30 minutes, with the page automatically refreshed every 10 minutes)

About weather observations | Map of weather stations | Latest weather observations for NSW | Other Formats
Station Details ID: 058012 Name: YAMBA PILOT STATION Lat: -29.43 Lon: 153.36 Height: 27.4 m
Data from the previous 72 hours. | See also: Recent months at Yamba
Date/Time
EDT
Temp
°C
App
Temp
°C
Dew
Point
°C
Rel
Hum
%
Delta-T
°C
Wind Press
QNH
hPa
Press
MSL
hPa
Rain since
9am
mm
Dir  Spd
km/h
Gust
km/h
Spd
kts
Gust
kts
23/11:00am 26.5 25.7 17.0 56 5.9 SE 17 22 9 12 1020.3 1020.1 0.0
23/10:30am 26.5 26.2 17.3 57 5.7 SSE 15 22 8 12 1020.5 1020.3 0.0
23/10:00am 26.0 25.5 16.0 54 6.1 SSE 13 20 7 11 1020.6 1020.4 0.0
23/09:30am 25.6 25.7 16.5 57 5.6 SSE 11 20 6 11 1020.5 1020.3 0.0
23/09:00am 24.8 25.5 17.0 62 4.8 S 9 13 5 7 1020.4 1020.2 0.0
23/08:30am 24.1 25.5 17.8 68 3.9 SW 7 11 4 6 1020.3 1020.1 0.0
23/08:00am 22.9 24.4 18.0 74 3.1 SW 7 11 4 6 1020.0 1019.8 0.0
23/07:30am 22.2 23.9 18.0 77 2.6 SSW 6 11 3 6 1019.8 1019.6 0.0
23/07:00am 21.8 22.9 17.2 75 2.8 SSE 7 13 4 7 1019.5 1019.3 0.0
23/06:30am 22.8 22.6 16.8 69 3.7 ESE 13 19 7 10 1019.1 1018.9 0.0
23/06:00am 22.4 22.7 16.9 71 3.4 SSE 11 15 6 8 1019.1 1018.9 0.0
23/05:30am 22.9 22.7 16.7 68 3.8 SE 13 19 7 10 1018.7 1018.5 0.0
23/05:00am 23.3 23.1 16.6 66 4.1 ESE 13 19 7 10 1018.6 1018.4 0.0
23/04:30am 23.0 23.1 16.5 67 4.0 ESE 11 17 6 9 1018.6 1018.4 0.0
23/04:00am 23.3 22.9 16.1 64 4.4 ESE 13 19 7 10 1018.7 1018.5 0.0
23/03:30am 23.2 22.7 16.0 64 4.4 ESE 13 17 7 9 1018.9 1018.7 0.0
23/03:00am 23.4 22.2 16.2 64 4.4 ESE 17 26 9 14 1019.1 1018.9 0.0
23/02:30am 23.9 22.4 16.4 63 4.6 ESE 19 24 10 13 1019.2 1019.0 0.0
23/02:00am 23.8 23.2 16.6 64 4.4 ESE 15 24 8 13 1019.4 1019.2 0.0
23/01:30am 23.8 22.4 16.6 64 4.4 ESE 19 26 10 14 1019.7 1019.5 0.0
23/01:00am 23.9 23.4 16.9 65 4.3 ESE 15 22 8 12 1019.8 1019.6 0.0
23/12:30am 24.0 23.1 16.8 64 4.4 ESE 17 24 9 13 1020.1 1019.9 0.0
23/12:00am 24.0 23.5 17.0 65 4.3 ESE 15 20 8 11 1020.3 1020.1 0.0
 
Date/Time
EDT
Temp
°C
App
Temp
°C
Dew
Point
°C
Rel
Hum
%
Delta-T
°C
Wind Press
QNH
hPa
Press
MSL
hPa
Rain since
9am
mm
Dir  Spd
km/h
Gust
km/h
Spd
kts
Gust
kts
22/11:30pm 24.1 23.5 16.6 63 4.6 ESE 15 22 8 12 1020.4 1020.2 0.0
22/11:00pm 24.2 22.6 15.9 59 5.0 ESE 19 24 10 13 1020.4 1020.2 0.0
22/10:30pm 24.3 22.8 16.3 61 4.9 E 19 26 10 14 1020.4 1020.2 0.0
22/10:00pm 24.3 23.0 16.8 63 4.6 ESE 19 24 10 13 1020.5 1020.3 0.0
22/09:30pm 24.4 23.6 17.1 63 4.5 ESE 17 24 9 13 1020.5 1020.3 0.0
22/09:00pm 24.2 23.2 16.7 63 4.6 ESE 17 24 9 13 1020.3 1020.1 0.0
22/08:30pm 24.1 23.5 17.6 67 4.1 ESE 17 24 9 13 1019.9 1019.7 0.0
22/08:00pm 24.2 23.1 17.2 65 4.3 ESE 19 26 10 14 1019.6 1019.4 0.0
22/07:30pm 24.3 23.5 17.1 64 4.5 E 17 24 9 13 1019.4 1019.2 0.0
22/07:00pm 24.4 23.8 17.6 66 4.2 ESE 17 26 9 14 1019.3 1019.1 0.0
22/06:30pm 24.8 24.5 17.3 63 4.7 ESE 15 24 8 13 1019.1 1018.9 0.0
22/06:00pm 25.3 24.3 17.5 62 4.9 ESE 19 26 10 14 1019.2 1019.0 0.0
22/05:30pm 25.6 24.4 17.0 59 5.3 ESE 19 28 10 15 1019.0 1018.8 0.0
22/05:00pm 25.8 24.9 16.9 58 5.5 ESE 17 26 9 14 1019.1 1018.9 0.0
22/04:30pm 25.7 24.5 17.1 59 5.4 ESE 19 26 10 14 1019.2 1019.0 0.0
22/04:00pm 26.2 25.5 17.3 58 5.6 ESE 17 24 9 13 1019.3 1019.1 0.0
22/03:30pm 25.8 24.5 16.9 58 5.5 ESE 19 28 10 15 1019.4 1019.2 0.0
22/03:00pm 26.6 26.5 18.7 62 5.0 ESE 17 24 9 13 1019.4 1019.2 0.0
22/02:30pm 26.5 26.1 18.1 60 5.3 ESE 17 24 9 13 1019.8 1019.6 0.0
22/02:00pm 26.7 26.0 18.3 60 5.3 ESE 19 26 10 14 1020.1 1019.9 0.0
22/01:30pm 26.0 25.1 16.8 57 5.7 ESE 17 24 9 13 1020.3 1020.1 0.0
22/01:00pm 26.3 25.7 18.4 61 5.0 ESE 19 24 10 13 1020.5 1020.3 0.0
22/12:30pm 26.7 27.1 19.1 63 4.9 ESE 15 22 8 12 1020.7 1020.5 0.0
22/12:00pm 26.3 25.7 18.9 63 4.7 ESE 20 28 11 15 1021.0 1020.8 0.0
22/11:30am 27.2 26.6 18.5 59 5.6 ESE 19 24 10 13 1021.0 1020.8 0.0
22/11:00am 26.1 25.7 18.0 61 5.1 ESE 17 22 9 12 1021.2 1021.0 0.0
22/10:30am 26.7 26.9 18.6 61 5.2 ESE 15 24 8 13 1021.2 1021.0 0.0
22/10:00am 25.7 25.8 18.4 64 4.6 ESE 15 22 8 12 1021.3 1021.1 0.0
22/09:30am 25.0 23.9 16.4 59 5.3 ESE 17 24 9 13 1021.3 1021.1 0.0
22/09:00am 24.5 24.0 17.0 63 4.6 ESE 15 24 8 13 1021.2 1021.0 0.4
22/08:30am 24.3 23.7 17.5 66 4.2 ESE 17 20 9 11 1021.0 1020.8 0.4
22/08:00am 24.2 23.5 17.4 65 4.2 ESE 17 24 9 13 1020.6 1020.4 0.4
22/07:30am 24.1 23.7 17.1 65 4.3 ESE 15 20 8 11 1020.4 1020.2 0.4
22/07:00am 24.0 23.2 17.0 65 4.3 E 17 26 9 14 1020.1 1019.9 0.4
22/06:30am 24.0 23.3 17.3 66 4.2 ESE 17 24 9 13 1019.6 1019.4 0.4
22/06:00am 23.8 23.0 17.1 66 4.1 ESE 17 24 9 13 1019.4 1019.2 0.4
22/05:30am 23.9 23.1 18.1 70 3.6 ESE 19 26 10 14 1019.1 1018.9 0.4
22/05:00am 24.0 23.2 18.0 69 3.8 ESE 19 28 10 15 1018.8 1018.6 0.4
22/04:30am 24.2 23.5 18.2 69 3.8 ESE 19 24 10 13 1018.7 1018.5 0.4
22/04:00am 24.1 23.8 18.3 70 3.6 ESE 17 24 9 13 1018.6 1018.4 0.4
22/03:30am 24.1 24.2 18.3 70 3.7 ESE 15 22 8 12 1018.5 1018.3 0.4
22/03:00am 24.1 23.9 18.5 71 3.5 ESE 17 24 9 13 1018.4 1018.2 0.4
22/02:30am 24.2 24.1 18.8 72 3.4 ESE 17 24 9 13 1018.5 1018.3 0.4
22/02:00am 24.1 25.1 18.7 72 3.4 ESE 11 19 6 10 1018.8 1018.6 0.4
22/01:30am 24.2 25.2 18.6 71 3.5 ESE 11 17 6 9 1019.1 1018.9 0.4
22/01:00am 24.2 25.6 18.6 71 3.5 ESE 9 15 5 8 1019.5 1019.3 0.4
22/12:30am 24.2 24.8 18.6 71 3.5 E 13 17 7 9 1019.7 1019.5 0.4
22/12:00am 24.1 24.7 18.5 71 3.5 E 13 20 7 11 1019.7 1019.5 0.4
 
Date/Time
EDT
Temp
°C
App
Temp
°C
Dew
Point
°C
Rel
Hum
%
Delta-T
°C
Wind Press
QNH
hPa
Press
MSL
hPa
Rain since
9am
mm
Dir  Spd
km/h
Gust
km/h
Spd
kts
Gust
kts
21/11:30pm 24.2 24.4 18.6 71 3.5 E 15 20 8 11 1020.1 1019.9 0.4
21/11:00pm 23.7 25.2 19.8 79 2.5 NE 11 17 6 9 1020.3 1020.1 0.2
21/10:30pm 24.3 26.1 19.6 75 3.0 E 9 15 5 8 1020.1 1019.9 0.2
21/10:00pm 24.3 25.4 18.9 72 3.4 E 11 19 6 10 1020.3 1020.1 0.2
21/09:30pm 24.4 24.2 17.6 66 4.2 ESE 15 20 8 11 1019.9 1019.7 0.2
21/09:00pm 24.4 24.1 17.4 65 4.3 ESE 15 20 8 11 1019.9 1019.7 0.2
21/08:30pm 24.6 24.2 17.1 63 4.6 ESE 15 22 8 12 1019.7 1019.5 0.2
21/08:00pm 24.5 23.7 17.0 63 4.6 ESE 17 22 9 12 1019.4 1019.2 0.2
21/07:30pm 24.5 23.2 16.7 61 4.8 ESE 19 24 10 13 1019.0 1018.8 0.2
21/07:00pm 24.4 22.8 16.6 61 4.8 ESE 20 26 11 14 1018.6 1018.4 0.2
21/06:30pm 24.1 24.0 17.8 68 3.9 ESE 15 22 8 12 1018.3 1018.1 0.2
21/06:00pm 24.1 24.9 19.0 73 3.2 ESE 13 24 7 13 1018.1 1017.9 0.2
21/05:30pm 23.2 23.8 19.4 79 2.4 SE 15 22 8 12 1017.9 1017.7 0.2
21/05:00pm 23.9 24.2 18.8 73 3.2 ESE 15 20 8 11 1017.9 1017.7 0.2
21/04:30pm 24.0 24.3 19.7 77 2.8 ESE 17 24 9 13 1017.9 1017.7 0.2
21/04:00pm 23.2 26.0 20.9 87 1.5 SSW 7 11 4 6 1017.8 1017.6 0.2
21/03:30pm 23.4 27.1 22.6 95 0.5 SW 7 11 4 6 1017.7 1017.5 0.2
21/03:00pm 23.5 27.2 22.5 94 0.7 SW 7 11 4 6 1017.7 1017.5 0.2
21/02:30pm 23.5 27.3 22.8 96 0.5 SSW 7 13 4 7 1017.9 1017.7 0.2
21/02:00pm 23.2 26.6 22.7 97 0.3 SSW 9 11 5 6 1018.1 1017.9 0.2
21/01:30pm 23.0 26.4 22.7 98 0.2 SSW 9 13 5 7 1018.2 1018.0 0.2
21/01:00pm 22.7 26.3 22.4 98 0.2 SW 7 11 4 6 1018.4 1018.2 0.2
21/12:30pm 22.6 26.2 22.4 99 0.1 WSW 7 13 4 7 1018.6 1018.4 0.2
21/12:00pm 22.3 25.4 22.1 99 0.1 WSW 9 11 5 6 1018.8 1018.6 0.0
21/11:30am 21.6 24.3 21.4 99 0.1 W 9 11 5 6 1019.2 1019.0 0.0
21/11:00am 21.6 23.9 21.4 99 0.1 NW 11 15 6 8 1019.2 1019.0 0.0
21/10:30am 21.0 22.6 20.8 99 0.1 WNW 13 19 7 10 1019.1 1018.9 0.0
21/10:00am 20.7 22.5 20.4 98 0.2 NW 11 17 6 9 1018.9 1018.7 0.0
21/09:30am 20.4 22.1 20.1 98 0.2 WSW 11 15 6 8 1018.4 1018.2 0.0
21/09:00am 20.6 22.4 20.3 98 0.2 WSW 11 15 6 8 1018.1 1017.9 0.0
21/08:30am 20.3 22.3 20.0 98 0.2 W 9 13 5 7 1017.8 1017.6 0.0
21/08:00am 20.8 23.4 20.5 98 0.2 SW 7 11 4 6 1017.3 1017.1 0.0
21/07:30am 20.9 23.2 20.6 98 0.2 WSW 9 11 5 6 1016.8 1016.6 0.0
21/07:00am 20.7 22.5 20.4 98 0.2 SW 11 15 6 8 1016.2 1016.0 0.0
21/06:30am 20.7 22.5 20.4 98 0.2 SSW 11 13 6 7 1015.8 1015.6 0.0
21/06:00am 20.2 22.2 19.9 98 0.2 SW 9 15 5 8 1015.5 1015.3 0.0
21/05:30am 20.4 22.5 20.1 98 0.2 WSW 9 13 5 7 1015.5 1015.3 0.0
21/05:00am 21.0 23.3 20.7 98 0.2 W 9 13 5 7 1015.1 1014.9 0.0
21/04:30am 21.4 23.9 21.1 98 0.2 SSW 9 13 5 7 1015.0 1014.8 0.0
21/04:00am 21.7 24.4 21.4 98 0.2 WSW 9 13 5 7 1014.7 1014.5 0.0
21/03:30am 21.9 24.6 21.4 97 0.3 WNW 9 11 5 6 1014.6 1014.4 0.0
21/03:00am 22.1 23.9 19.5 85 1.7 WSW 9 13 5 7 1014.9 1014.7 0.0
21/02:30am 22.3 23.7 18.7 80 2.3 W 9 15 5 8 1015.0 1014.8 0.0
21/02:00am 23.6 25.7 19.3 77 2.7 SE 7 11 4 6 1015.3 1015.1 0.0
21/01:30am 24.4 26.4 19.9 76 2.9 ESE 9 13 5 7 1015.5 1015.3 0.0
21/01:00am 24.6 25.7 19.7 74 3.2 ESE 13 17 7 9 1015.5 1015.3 0.0
21/12:30am 24.7 25.6 19.3 72 3.5 ESE 13 17 7 9 1015.6 1015.4 0.0
21/12:00am 24.6 25.7 18.8 70 3.7 E 11 17 6 9 1015.8 1015.6 0.0
 
Date/Time
EDT
Temp
°C
App
Temp
°C
Dew
Point
°C
Rel
Hum
%
Delta-T
°C
Wind Press
QNH
hPa
Press
MSL
hPa
Rain since
9am
mm
Dir  Spd
km/h
Gust
km/h
Spd
kts
Gust
kts
20/11:30pm 24.4 24.6 18.6 70 3.7 ESE 15 19 8 10 1015.7 1015.5 0.0
20/11:00pm 24.4 25.5 18.8 71 3.6 E 11 17 6 9 1015.9 1015.7 0.0
20/10:30pm 24.4 25.0 18.6 70 3.7 E 13 17 7 9 1015.4 1015.2 0.0
20/10:00pm 24.5 25.0 18.4 69 3.9 E 13 19 7 10 1015.1 1014.9 0.0
20/09:30pm 24.5 24.5 18.0 67 4.1 E 15 24 8 13 1014.8 1014.6 0.0
20/09:00pm 24.5 24.5 18.2 68 4.0 E 15 20 8 11 1014.2 1014.0 0.0
20/08:30pm 24.6 23.9 17.3 64 4.5 E 17 24 9 13 1013.7 1013.5 0.0
20/08:00pm 24.7 24.4 17.4 64 4.5 E 15 20 8 11 1013.1 1012.9 0.0
20/07:30pm 24.8 23.8 16.5 60 5.1 E 17 24 9 13 1012.5 1012.3 0.0
20/07:00pm 25.0 24.4 16.7 60 5.1 E 15 22 8 12 1011.9 1011.8 0.0
20/06:30pm 25.5 24.1 15.5 54 6.1 E 17 24 9 13 1011.4 1011.3 0.0
20/06:00pm 25.8 23.8 15.5 53 6.3 E 20 30 11 16 1011.0 1010.9 0.0
20/05:30pm 26.1 23.7 15.5 52 6.4 ESE 22 32 12 17 1010.6 1010.5 0.0
20/05:00pm 26.3 24.6 16.3 54 6.2 E 20 28 11 15 1010.6 1010.5 0.0
20/04:30pm 26.5 24.5 15.5 50 6.7 ESE 20 28 11 15 1010.3 1010.2 0.0
20/04:00pm 26.8 25.6 16.1 52 6.6 ESE 17 26 9 14 1010.2 1010.1 0.0
20/03:30pm 27.1 26.9 19.7 64 4.8 SE 20 28 11 15 1010.1 1010.0 0.0
20/03:00pm 26.6 25.7 19.0 63 4.9 SE 22 28 12 15 1010.3 1010.2 0.0
20/02:30pm 26.5 25.9 18.9 63 4.9 SE 20 26 11 14 1010.6 1010.5 0.0
20/02:00pm 26.4 25.1 17.2 57 5.8 SE 20 30 11 16 1010.9 1010.8 0.0
20/01:30pm 26.0 23.8 16.0 54 6.1 SSE 22 26 12 14 1011.2 1011.1 0.0
20/01:00pm 27.1 25.8 17.3 55 6.2 SSE 20 26 11 14 1011.5 1011.4 0.0
20/12:30pm 27.3 25.7 16.0 50 7.0 SE 19 26 10 14 1011.8 1011.7 0.0
20/12:00pm 27.5 24.9 13.1 41 8.5 SSE 19 26 10 14 1011.9 1011.8 0.0
20/11:30am 26.8 24.2 13.9 45 7.7 SSE 20 30 11 16 1011.9 1011.8 0.0

Other Formats:

Comma delimited format used in spreadsheet applications
http://www.bom.gov.au/fwo/IDN60801/IDN60801.94589.axf

JavaScript Object Notation format (JSON) in row-major order
http://www.bom.gov.au/fwo/IDN60801/IDN60801.94589.json